createdAt,value
2023-01-05T07:55:08.621Z,100.00
2023-01-05T07:56:12.304Z,100.00
2023-01-05T08:03:32.686Z,100.00
2023-01-05T08:04:46.388Z,100.00
2023-01-05T08:06:00.893Z,100.00
2023-01-05T08:11:45.901Z,100.00
2023-01-05T08:13:14.981Z,100.00
2023-01-05T08:14:25.405Z,100.00
2023-01-05T08:17:29.696Z,100.00
2023-01-05T08:19:03.370Z,100.00
2023-01-05T11:10:10.131Z,100.00
2023-01-05T11:11:21.696Z,100.00
2023-01-05T11:12:25.842Z,100.00
2023-01-05T11:13:34.341Z,100.00
2023-01-05T11:14:46.656Z,100.00
2023-01-05T11:16:31.592Z,100.00
2023-01-05T11:21:40.502Z,100.00
2023-01-05T12:25:10.216Z,100.00
2023-01-05T13:01:39.420Z,100.00
2023-01-05T13:03:00.666Z,100.00
2023-01-05T13:06:06.362Z,100.00
2023-01-05T13:07:32.079Z,100.00
2023-01-05T13:13:22.326Z,100.00
2023-01-05T18:35:30.251Z,100.00
2023-01-05T18:36:37.846Z,100.00
2023-01-05T18:37:47.666Z,100.00
2023-01-05T18:38:52.453Z,100.00
2023-01-05T18:39:57.486Z,100.00
2023-01-05T18:41:00.447Z,100.00
2023-01-05T18:42:08.059Z,100.00
2023-01-05T18:43:12.934Z,100.00
2023-01-05T18:44:23.860Z,100.00
2023-01-05T18:45:38.259Z,100.00
2023-01-05T18:46:45.351Z,100.00
2023-01-05T18:47:48.697Z,100.00
2023-01-05T18:48:52.047Z,100.00
2023-01-05T18:49:59.500Z,100.00
2023-01-05T18:51:08.253Z,100.00
2023-01-05T18:52:13.211Z,100.00
2023-01-05T18:53:17.520Z,100.00
2023-01-05T18:54:23.926Z,100.00
2023-01-05T18:55:27.550Z,100.00
2023-01-05T18:56:32.067Z,100.00
2023-01-05T18:57:37.082Z,100.00
2023-01-05T18:58:43.384Z,100.00
2023-01-05T18:59:51.762Z,100.00
2023-01-05T19:01:00.935Z,100.00
2023-01-05T19:02:05.114Z,100.00
2023-01-05T19:03:14.252Z,100.00
2023-01-05T19:04:23.950Z,100.00
2023-01-05T19:05:33.660Z,100.00
2023-01-05T19:06:38.319Z,100.00
2023-01-05T19:07:41.544Z,100.00
2023-01-05T19:08:54.925Z,100.00
2023-01-05T19:09:58.892Z,100.00
2023-01-05T19:11:16.459Z,100.00
2023-01-05T19:12:27.123Z,100.00
2023-01-05T20:38:06.514Z,100.00
2023-01-05T20:39:10.344Z,100.00
2023-01-05T20:40:16.852Z,100.00
2023-01-05T20:41:36.071Z,100.00
2023-01-05T20:42:41.890Z,100.00
2023-01-05T20:43:53.815Z,100.00
2023-01-05T20:45:05.608Z,100.00
2023-01-05T20:46:20.146Z,100.00
2023-01-05T20:47:46.571Z,100.00
2023-01-05T20:49:05.670Z,100.00
2023-01-05T20:50:12.930Z,100.00
2023-01-05T20:51:33.189Z,100.00
2023-01-05T20:52:46.212Z,100.00
2023-01-05T21:04:15.600Z,100.00
2023-01-05T21:05:25.009Z,100.00
2023-01-05T21:06:32.872Z,100.00
2023-01-05T21:08:03.624Z,100.00
2023-01-05T21:09:23.487Z,100.00
2023-01-05T21:10:31.089Z,100.00
2023-01-05T21:11:50.455Z,100.00
2023-01-05T21:13:46.678Z,100.00
2023-01-05T21:15:10.466Z,100.00
2023-01-05T21:16:22.439Z,100.00
2023-01-05T21:17:25.144Z,100.00
2023-01-05T21:22:38.096Z,100.00
2023-01-05T21:23:45.250Z,100.00
2023-01-05T21:24:47.860Z,100.00
2023-01-05T22:16:34.106Z,95.43
2023-01-05T22:17:45.812Z,94.69
2023-01-05T22:19:02.594Z,94.74
2023-01-05T22:26:22.047Z,95.72
2023-01-05T22:27:29.855Z,95.78
2023-01-05T22:28:37.371Z,95.21
2023-01-05T22:29:40.484Z,95.40
2023-01-05T22:30:43.122Z,96.58
2023-01-05T22:31:50.987Z,96.93
2023-01-05T22:32:58.536Z,96.83
2023-01-05T22:34:06.605Z,97.92
2023-01-05T22:35:12.523Z,97.44
2023-01-05T22:36:20.650Z,97.90
2023-01-05T22:37:23.759Z,97.61
2023-01-05T22:38:28.722Z,97.04
2023-01-05T22:39:33.815Z,97.66
2023-01-05T22:40:41.025Z,97.78
2023-01-05T22:41:47.404Z,97.39
2023-01-05T22:42:54.839Z,97.81
2023-01-05T22:44:04.659Z,98.19
2023-01-05T22:45:10.987Z,98.58
2023-01-05T22:46:20.171Z,98.23
2023-01-05T22:47:25.096Z,98.91
2023-01-05T22:48:28.486Z,99.28
2023-01-05T22:49:31.844Z,98.79
2023-01-05T22:50:35.078Z,98.10
2023-01-05T22:51:41.640Z,98.76
2023-01-05T22:52:46.442Z,98.51
2023-01-05T22:53:52.378Z,98.61
2023-01-05T22:54:58.438Z,98.35
2023-01-05T22:56:02.007Z,98.74
2023-01-05T22:57:08.738Z,98.86
2023-01-05T22:58:14.715Z,98.76
2023-01-05T22:59:18.141Z,98.53
2023-01-05T23:00:21.090Z,96.97
2023-01-05T23:01:27.302Z,96.99
2023-01-05T23:02:33.558Z,97.76
2023-01-05T23:03:37.871Z,98.33
2023-01-05T23:04:43.810Z,97.86
2023-01-05T23:05:53.430Z,98.10
2023-01-05T23:07:01.180Z,98.01
2023-01-05T23:08:08.266Z,98.64
2023-01-05T23:09:14.256Z,98.16
2023-01-05T23:10:18.092Z,98.67
2023-01-05T23:11:23.141Z,98.24
2023-01-05T23:12:26.152Z,97.67
2023-01-05T23:13:30.336Z,97.37
2023-01-05T23:14:35.717Z,97.77
2023-01-05T23:15:41.426Z,97.73
2023-01-05T23:16:45.723Z,97.86
2023-01-05T23:17:48.866Z,97.04
2023-01-05T23:18:53.280Z,96.78
2023-01-05T23:20:02.404Z,97.56
2023-01-05T23:21:10.503Z,97.39
2023-01-05T23:22:15.947Z,97.80
2023-01-05T23:23:25.115Z,96.13
2023-01-05T23:24:31.062Z,96.84
2023-01-05T23:25:35.506Z,96.86
2023-01-05T23:26:39.147Z,95.98
2023-01-05T23:27:42.390Z,95.42
2023-01-05T23:28:46.235Z,96.54
2023-01-05T23:29:49.436Z,95.58
2023-01-05T23:30:57.483Z,96.36
2023-01-05T23:32:05.520Z,95.50
2023-01-05T23:33:08.399Z,95.48
2023-01-05T23:34:11.821Z,95.61
2023-01-05T23:35:17.466Z,95.65
2023-01-05T23:36:24.610Z,96.14
2023-01-05T23:37:29.542Z,96.74
2023-01-05T23:38:36.241Z,96.63
2023-01-05T23:39:45.130Z,97.39
2023-01-05T23:40:50.609Z,96.66
2023-01-05T23:41:54.374Z,96.60
2023-01-05T23:42:57.817Z,96.70
2023-01-05T23:44:03.164Z,97.28
2023-01-05T23:45:08.031Z,98.00
2023-01-05T23:46:21.212Z,97.40
2023-01-05T23:47:25.628Z,98.26
2023-01-05T23:48:32.243Z,98.04
2023-01-05T23:49:35.482Z,99.69
2023-01-05T23:50:47.868Z,99.60
2023-01-05T23:51:52.302Z,100.00
2023-01-05T23:52:57.028Z,99.59
2023-01-05T23:54:02.251Z,100.00
2023-01-05T23:55:05.467Z,99.09
2023-01-05T23:56:11.556Z,98.57
2023-01-05T23:57:17.669Z,98.82
2023-01-05T23:58:21.685Z,99.43
2023-01-05T23:59:24.703Z,99.75
